Time;durP1;ratioP1;P1;durP2;ratioP2;P2;SDS_P1;SDS_P2;PMS_P1;PMS_P2;Temp;Humidity;BMP_temperature;BMP_pressure;BME280_temperature;BME280_humidity;BME280_pressure;Samples;Min_cycle;Max_cycle;Signal;HPM_P1;HPM_P2
2022/12/04 00:02:06;;;;;;;110.28;68.55;;;179.30;2252.80;;;;;;5077675;28;20024;-91
2022/12/04 00:04:32;;;;;;;102.15;62.05;;;179.30;2252.80;;;;;;5081212;28;20017;-90
2022/12/04 00:06:58;;;;;;;92.93;60.35;;;179.30;2252.80;;;;;;5108492;28;20036;-91
2022/12/04 00:09:24;;;;;;;113.50;71.25;;;179.30;2252.80;;;;;;5096330;28;20024;-89
2022/12/04 00:11:50;;;;;;;132.85;79.55;;;179.30;2252.80;;;;;;5094437;28;20028;-91
2022/12/04 00:14:16;;;;;;;94.68;57.58;;;179.40;2252.80;;;;;;5092048;28;20033;-90
2022/12/04 00:16:41;;;;;;;80.72;54.38;;;179.30;2252.80;;;;;;5092206;28;20024;-92
2022/12/04 00:19:07;;;;;;;92.15;59.08;;;179.30;2252.80;;;;;;5091489;28;20456;-91
2022/12/04 00:21:33;;;;;;;73.15;47.60;;;179.30;2252.80;;;;;;5092673;28;20031;-90
2022/12/04 00:23:59;;;;;;;64.40;41.10;;;179.30;2252.80;;;;;;5092043;28;20025;-91
2022/12/04 00:26:26;;;;;;;92.75;53.42;;;179.40;2252.80;;;;;;5091659;28;20491;-90
2022/12/04 00:28:53;;;;;;;159.15;74.75;;;179.40;2252.80;;;;;;5057805;28;20560;-90
2022/12/04 00:31:21;;;;;;;174.85;80.10;;;179.40;2252.80;;;;;;5057400;28;20028;-91
2022/12/04 00:33:47;;;;;;;106.95;60.00;;;179.40;2252.80;;;;;;5057690;28;20064;-91
2022/12/04 00:36:16;;;;;;;87.32;50.83;;;179.30;2252.80;;;;;;5091675;28;20032;-91
2022/12/04 00:38:42;;;;;;;102.00;54.30;;;179.40;2252.80;;;;;;5058201;28;20457;-91
2022/12/04 00:41:14;;;;;;;144.25;68.13;;;179.40;2252.80;;;;;;5057722;28;20025;-90
2022/12/04 00:43:40;;;;;;;179.52;80.22;;;179.40;2252.80;;;;;;5057917;28;20127;-90
2022/12/04 00:46:06;;;;;;;151.00;74.57;;;179.50;2252.80;;;;;;5044272;28;20029;-90
2022/12/04 00:48:32;;;;;;;124.43;60.78;;;179.60;2252.80;;;;;;5037991;28;20029;-89
2022/12/04 00:51:07;;;;;;;93.63;49.25;;;179.60;2252.80;;;;;;5037356;28;20431;-91
2022/12/04 00:53:32;;;;;;;106.35;54.65;;;179.60;2252.80;;;;;;5037504;28;20032;-89
2022/12/04 00:56:02;;;;;;;103.22;54.13;;;179.60;2252.80;;;;;;5037824;28;20033;-90
2022/12/04 00:58:28;;;;;;;103.63;53.97;;;179.60;2252.80;;;;;;5043511;28;20029;-89
2022/12/04 01:01:02;;;;;;;86.05;49.30;;;179.70;2252.80;;;;;;5037857;28;20029;-90
2022/12/04 01:03:28;;;;;;;106.97;58.13;;;179.70;2252.80;;;;;;5037750;28;20029;-90
2022/12/04 01:05:53;;;;;;;91.22;51.33;;;179.60;2252.80;;;;;;5036964;28;20370;-91
2022/12/04 01:08:19;;;;;;;74.10;43.15;;;179.60;2048.00;;;;;;5037649;28;20025;-90
2022/12/04 01:10:45;;;;;;;69.32;41.15;;;179.60;1971.20;;;;;;5036849;28;20025;-91
2022/12/04 01:13:11;;;;;;;70.88;40.22;;;179.70;2022.40;;;;;;5036946;28;20029;-90
2022/12/04 01:15:42;;;;;;;60.55;38.30;;;179.70;2048.00;;;;;;5036591;28;20029;-92
2022/12/04 01:18:09;;;;;;;61.42;38.00;;;179.70;2252.80;;;;;;5036584;28;20063;-91
2022/12/04 01:20:34;;;;;;;60.58;36.85;;;179.70;2252.80;;;;;;5036569;28;20036;-90
2022/12/04 01:23:00;;;;;;;62.88;39.83;;;179.80;2252.80;;;;;;5036827;28;20025;-91
2022/12/04 01:25:27;;;;;;;65.45;41.60;;;179.80;2252.80;;;;;;5041187;28;20009;-90
2022/12/04 01:27:53;;;;;;;55.45;35.80;;;;;;;;;;5060487;28;20080;-90
2022/12/04 01:30:19;;;;;;;58.00;36.42;;;180.00;2252.80;;;;;;5094273;28;20017;-90
2022/12/04 01:32:44;;;;;;;54.72;33.28;;;180.00;2252.80;;;;;;5060497;28;20017;-91
2022/12/04 01:35:10;;;;;;;55.45;36.38;;;180.00;2252.80;;;;;;5060571;28;20067;-87
2022/12/04 01:37:36;;;;;;;57.97;37.85;;;179.80;2252.80;;;;;;5057012;28;20106;-89
2022/12/04 01:40:03;;;;;;;55.28;35.55;;;179.80;2252.80;;;;;;5038155;28;20548;-90
2022/12/04 01:42:29;;;;;;;53.78;34.80;;;179.80;2252.80;;;;;;5040171;28;20025;-91
2022/12/04 01:45:32;;;;;;;54.22;35.70;;;179.80;2252.80;;;;;;5041526;28;20136;-90
2022/12/04 01:48:09;;;;;;;52.67;33.67;;;179.80;2252.80;;;;;;5074021;28;20029;-89
2022/12/04 01:50:36;;;;;;;49.92;31.55;;;179.70;2252.80;;;;;;5042016;28;20120;-90
2022/12/04 01:53:02;;;;;;;44.83;29.30;;;179.50;1996.80;;;;;;5039978;28;20407;-93
2022/12/04 01:55:29;;;;;;;53.03;31.83;;;179.80;2252.80;;;;;;5039603;28;20037;-91
2022/12/04 01:57:56;;;;;;;50.50;32.90;;;179.80;2252.80;;;;;;5039785;28;20026;-92
2022/12/04 02:00:23;;;;;;;51.00;34.50;;;179.80;2252.80;;;;;;5040626;28;20025;-91
2022/12/04 02:02:49;;;;;;;52.67;34.47;;;179.80;2252.80;;;;;;5041661;28;20115;-91
2022/12/04 02:05:19;;;;;;;61.25;35.90;;;179.80;2227.20;;;;;;5040524;28;20071;-92
2022/12/04 02:07:48;;;;;;;59.15;39.83;;;179.80;2252.80;;;;;;5039915;28;20032;-91
2022/12/04 02:10:16;;;;;;;55.92;35.42;;;179.80;2252.80;;;;;;5039583;28;20460;-91
2022/12/04 02:12:55;;;;;;;49.55;33.15;;;179.80;2252.80;;;;;;5057141;28;20380;-91
2022/12/04 02:15:27;;;;;;;48.03;31.67;;;179.90;2252.80;;;;;;5039426;28;20043;-93
2022/12/04 02:18:02;;;;;;;50.50;32.67;;;179.90;2252.80;;;;;;5039531;28;20386;-91
2022/12/04 02:20:53;;;;;;;60.60;35.13;;;179.80;2252.80;;;;;;5039397;28;20086;-93
2022/12/04 02:23:44;;;;;;;54.28;35.95;;;179.90;1996.80;;;;;;5039219;28;20025;-91
2022/12/04 02:26:16;;;;;;;65.40;39.40;;;179.90;2252.80;;;;;;5039280;28;20114;-91
2022/12/04 02:29:07;;;;;;;62.97;37.75;;;179.90;2252.80;;;;;;5038946;28;20021;-91
2022/12/04 02:31:43;;;;;;;59.20;37.25;;;179.80;2252.80;;;;;;5039187;28;20025;-92
2022/12/04 02:34:30;;;;;;;74.50;46.45;;;179.80;2252.80;;;;;;5039115;28;20055;-91
2022/12/04 02:37:05;;;;;;;57.55;36.95;;;179.70;2252.80;;;;;;5053852;28;20035;-90
2022/12/04 02:39:40;;;;;;;62.58;39.75;;;179.70;2252.80;;;;;;5058856;28;20035;-91
2022/12/04 02:42:20;;;;;;;59.30;38.58;;;179.80;2252.80;;;;;;5058797;28;20029;-92
2022/12/04 02:45:09;;;;;;;62.03;39.05;;;179.80;2252.80;;;;;;5059471;28;20036;-92
2022/12/04 02:47:37;;;;;;;61.15;37.65;;;179.80;2252.80;;;;;;5057904;28;20033;-91
2022/12/04 02:50:12;;;;;;;55.00;34.88;;;179.80;2252.80;;;;;;5059165;28;20115;-90
2022/12/04 02:52:49;;;;;;;43.92;28.10;;;179.80;2252.80;;;;;;5058906;28;20025;-91
2022/12/04 02:55:21;;;;;;;41.78;25.52;;;179.90;2252.80;;;;;;5058597;28;20078;-91
2022/12/04 02:57:56;;;;;;;37.63;23.80;;;179.90;2252.80;;;;;;5058665;28;20063;-91
2022/12/04 03:00:22;;;;;;;30.90;19.65;;;179.90;2252.80;;;;;;5058692;28;20462;-92
2022/12/04 03:03:02;;;;;;;29.25;20.55;;;179.90;2252.80;;;;;;5058550;28;20063;-91
2022/12/04 03:05:50;;;;;;;32.67;19.77;;;179.90;2252.80;;;;;;5058263;28;20120;-92
2022/12/04 03:08:25;;;;;;;32.63;22.05;;;179.90;2252.80;;;;;;5058451;28;20025;-91
2022/12/04 03:10:56;;;;;;;35.05;22.30;;;179.90;2252.80;;;;;;5058076;28;20051;-91
2022/12/04 03:13:45;;;;;;;50.55;28.13;;;180.00;2252.80;;;;;;5058188;28;20024;-92
2022/12/04 03:16:17;;;;;;;57.47;32.47;;;179.90;2252.80;;;;;;5045682;28;20083;-91
2022/12/04 03:18:50;;;;;;;64.60;32.27;;;179.90;2252.80;;;;;;5058231;28;20032;-92
2022/12/04 03:21:22;;;;;;;56.83;30.60;;;179.90;2252.80;;;;;;5058349;28;20264;-93
2022/12/04 03:24:16;;;;;;;47.60;30.02;;;180.00;2252.80;;;;;;5091570;28;20029;-92
2022/12/04 03:27:06;;;;;;;50.42;30.67;;;180.00;2252.80;;;;;;5057749;28;20469;-91
2022/12/04 03:29:42;;;;;;;48.75;30.17;;;180.00;2252.80;;;;;;5058221;28;20029;-91
2022/12/04 03:32:24;;;;;;;43.58;27.92;;;180.00;2252.80;;;;;;5057934;28;20052;-91
2022/12/04 03:35:05;;;;;;;33.75;23.90;;;179.90;2252.80;;;;;;5057116;28;20048;-93
2022/12/04 03:37:55;;;;;;;39.38;25.90;;;179.90;2252.80;;;;;;5057711;28;20025;-92
2022/12/04 03:40:27;;;;;;;41.28;27.75;;;179.90;2252.80;;;;;;5057931;28;20052;-92
2022/12/04 03:43:10;;;;;;;41.38;27.40;;;179.90;2252.80;;;;;;5057773;28;20024;-92
2022/12/04 03:45:44;;;;;;;33.08;23.92;;;179.90;2252.80;;;;;;5057789;28;20032;-92
2022/12/04 03:48:40;;;;;;;32.72;22.35;;;179.90;2252.80;;;;;;5075615;28;20024;-92
2022/12/04 03:51:22;;;;;;;29.08;19.90;;;179.80;2252.80;;;;;;5057747;28;20039;-91
2022/12/04 03:54:01;;;;;;;30.65;20.63;;;179.80;2252.80;;;;;;5057843;28;20031;-92
2022/12/04 03:56:39;;;;;;;33.53;21.02;;;179.90;2252.80;;;;;;5057729;28;20028;-92
2022/12/04 03:59:37;;;;;;;37.58;25.67;;;179.90;2252.80;;;;;;5058144;28;20464;-92
2022/12/04 04:02:07;;;;;;;33.10;22.05;;;180.00;2252.80;;;;;;5041970;28;20064;-92
2022/12/04 04:04:38;;;;;;;30.90;21.50;;;179.90;2252.80;;;;;;5057050;28;20480;-92
2022/12/04 04:07:17;;;;;;;33.03;22.30;;;179.90;2252.80;;;;;;5057120;28;20024;-91
2022/12/04 04:09:47;;;;;;;33.53;21.75;;;179.90;2252.80;;;;;;5057438;28;20024;-91
2022/12/04 04:12:19;;;;;;;36.47;22.30;;;179.90;2252.80;;;;;;5057517;28;20020;-91
2022/12/04 04:24:13;;;;;;;33.67;23.27;;;179.90;2252.80;;;;;;5051674;28;20086;-92
2022/12/04 04:26:23;;;;;;;27.92;17.52;;;179.90;2252.80;;;;;;5096476;28;20046;-89
2022/12/04 04:28:49;;;;;;;27.85;16.55;;;180.00;2252.80;;;;;;5081373;28;20012;-91
2022/12/04 04:31:41;;;;;;;24.90;16.00;;;180.00;2252.80;;;;;;5075042;28;20090;-90
2022/12/04 04:34:09;;;;;;;27.70;16.70;;;179.90;2252.80;;;;;;5060484;28;20388;-91
2022/12/04 04:36:57;;;;;;;25.25;16.13;;;180.00;2252.80;;;;;;5057771;28;20060;-91
2022/12/04 04:39:29;;;;;;;25.80;17.08;;;180.00;2252.80;;;;;;5057096;28;20021;-90
2022/12/04 04:42:08;;;;;;;38.45;22.85;;;180.00;2252.80;;;;;;5056425;28;20115;-91
2022/12/04 04:45:00;;;;;;;33.13;21.27;;;180.00;2252.80;;;;;;5056970;28;20039;-92
2022/12/04 04:47:51;;;;;;;40.70;25.00;;;179.90;2252.80;;;;;;5057260;28;20094;-91
2022/12/04 04:50:19;;;;;;;46.40;29.25;;;180.00;2252.80;;;;;;5048533;28;20064;-91
2022/12/04 04:52:58;;;;;;;57.75;35.67;;;180.10;2252.80;;;;;;5056582;28;20036;-92
2022/12/04 04:55:25;;;;;;;52.38;32.67;;;180.00;2252.80;;;;;;5056617;28;20070;-92
2022/12/04 04:57:51;;;;;;;45.85;26.58;;;180.00;2252.80;;;;;;5056669;28;20032;-92
2022/12/04 05:00:20;;;;;;;73.30;43.95;;;180.00;2252.80;;;;;;5056763;28;20116;-92
2022/12/04 05:02:48;;;;;;;55.08;36.35;;;180.00;2252.80;;;;;;5056655;28;20032;-92
2022/12/04 05:05:14;;;;;;;47.17;29.17;;;180.10;2252.80;;;;;;5056090;28;20128;-91
2022/12/04 05:07:40;;;;;;;42.55;26.23;;;204.80;2252.80;;;;;;5070569;28;20111;-91
2022/12/04 05:10:07;;;;;;;38.75;24.13;;;204.80;2252.80;;;;;;5069976;28;20056;-90
2022/12/04 05:12:33;;;;;;;36.17;22.67;;;180.00;2252.80;;;;;;5069922;28;20025;-92
2022/12/04 05:14:58;;;;;;;39.25;24.52;;;180.10;2252.80;;;;;;5070051;28;20033;-91
2022/12/04 05:17:24;;;;;;;41.70;25.00;;;180.00;2252.80;;;;;;5071929;28;20037;-91
2022/12/04 05:19:53;;;;;;;91.93;44.35;;;180.00;2252.80;;;;;;5073803;28;20032;-91
2022/12/04 05:22:24;;;;;;;98.93;50.88;;;180.00;2252.80;;;;;;5073857;28;20056;-91
2022/12/04 05:24:50;;;;;;;73.75;41.90;;;180.00;2252.80;;;;;;5073703;28;20029;-92
2022/12/04 05:27:15;;;;;;;75.00;37.72;;;180.00;2252.80;;;;;;5073878;28;20112;-92
2022/12/04 05:29:41;;;;;;;53.10;30.95;;;180.10;2252.80;;;;;;5073689;28;20021;-91
2022/12/04 05:32:07;;;;;;;47.40;28.75;;;180.00;2252.80;;;;;;5073378;28;20480;-91
2022/12/04 05:34:33;;;;;;;48.58;25.58;;;180.00;2252.80;;;;;;5073375;28;20045;-92
2022/12/04 05:36:59;;;;;;;37.72;24.27;;;180.00;2252.80;;;;;;5073356;28;20028;-91
2022/12/04 05:39:24;;;;;;;40.83;24.73;;;180.00;2252.80;;;;;;5073392;28;20029;-92
2022/12/04 05:41:50;;;;;;;41.67;26.08;;;180.00;2252.80;;;;;;5073350;28;20089;-91
2022/12/04 05:44:16;;;;;;;38.17;26.05;;;180.00;2252.80;;;;;;5073235;28;20056;-92
2022/12/04 05:46:42;;;;;;;46.30;27.70;;;180.00;2252.80;;;;;;5073058;28;20025;-91
2022/12/04 05:49:08;;;;;;;40.75;27.58;;;180.00;2252.80;;;;;;5039883;28;20078;-91
2022/12/04 05:51:33;;;;;;;49.13;31.60;;;179.90;2252.80;;;;;;5073266;28;20075;-91
2022/12/04 05:53:59;;;;;;;57.50;33.05;;;179.90;2252.80;;;;;;5072966;28;20544;-91
2022/12/04 05:56:25;;;;;;;63.78;34.60;;;179.80;2252.80;;;;;;5072998;28;20079;-92
2022/12/04 05:58:51;;;;;;;66.90;38.03;;;179.90;2252.80;;;;;;5072882;28;20025;-90
2022/12/04 06:01:20;;;;;;;66.38;38.78;;;179.90;2252.80;;;;;;5073166;28;20082;-91
2022/12/04 06:03:46;;;;;;;47.92;29.77;;;179.90;2252.80;;;;;;5073054;28;20025;-92
2022/12/04 06:06:17;;;;;;;55.88;33.78;;;179.90;2252.80;;;;;;5072785;28;20532;-92
2022/12/04 06:08:43;;;;;;;41.33;25.13;;;180.00;2099.20;;;;;;5073014;28;20380;-91
2022/12/04 06:11:13;;;;;;;40.20;24.90;;;179.90;2124.80;;;;;;5072850;28;20029;-91
2022/12/04 06:13:41;;;;;;;35.78;23.65;;;179.90;2252.80;;;;;;5074340;28;20144;-91
2022/12/04 06:16:19;;;;;;;33.33;22.08;;;179.90;2252.80;;;;;;5039352;28;20123;-91
2022/12/04 06:18:50;;;;;;;29.20;18.15;;;180.00;1996.80;;;;;;5038954;28;20032;-92
2022/12/04 06:21:16;;;;;;;33.53;22.33;;;179.90;2201.60;;;;;;5039358;28;20051;-91
2022/12/04 06:23:42;;;;;;;35.40;21.92;;;180.00;2252.80;;;;;;5057790;28;20104;-92
2022/12/04 06:26:08;;;;;;;40.78;28.13;;;180.00;2124.80;;;;;;5040760;28;20120;-91
2022/12/04 06:28:35;;;;;;;38.95;27.80;;;180.00;1920.00;;;;;;5040226;28;20035;-92
2022/12/04 06:31:07;;;;;;;42.83;28.65;;;180.00;2252.80;;;;;;5039479;28;20031;-92
2022/12/04 06:33:33;;;;;;;41.88;29.75;;;180.00;2252.80;;;;;;5039019;28;20029;-91
2022/12/04 06:36:01;;;;;;;69.90;41.10;;;180.10;2252.80;;;;;;5039218;28;20036;-92
2022/12/04 06:38:28;;;;;;;72.78;43.15;;;180.10;2099.20;;;;;;5039136;28;20067;-92
2022/12/04 06:40:54;;;;;;;97.03;53.42;;;180.10;2252.80;;;;;;5038866;28;20021;-91
2022/12/04 06:43:20;;;;;;;108.22;64.78;;;180.10;2252.80;;;;;;5039138;28;20495;-92
2022/12/04 06:45:46;;;;;;;92.63;52.97;;;204.80;2252.80;;;;;;5072254;28;20057;-91
2022/12/04 06:48:11;;;;;;;87.88;53.30;;;180.10;2252.80;;;;;;5038617;28;20115;-92
2022/12/04 06:50:37;;;;;;;114.28;66.63;;;204.80;2252.80;;;;;;5038952;28;20032;-91
2022/12/04 06:53:03;;;;;;;110.03;63.72;;;204.80;2252.80;;;;;;5038718;28;20032;-91
2022/12/04 06:55:29;;;;;;;140.63;88.13;;;204.80;2252.80;;;;;;5038666;28;20037;-92
2022/12/04 06:57:55;;;;;;;143.63;88.63;;;180.10;2252.80;;;;;;5039247;28;20124;-92
2022/12/04 07:00:21;;;;;;;123.28;79.93;;;180.10;2252.80;;;;;;5039013;28;20064;-91
2022/12/04 07:02:46;;;;;;;120.38;75.93;;;204.80;2252.80;;;;;;5039116;28;20433;-92
2022/12/04 07:05:13;;;;;;;132.70;85.45;;;204.80;2252.80;;;;;;5039247;28;20036;-93
2022/12/04 07:07:39;;;;;;;150.35;90.70;;;204.80;2252.80;;;;;;5039331;28;20028;-91
2022/12/04 07:10:06;;;;;;;151.23;97.03;;;204.80;2252.80;;;;;;5038797;28;20436;-92
2022/12/04 07:12:31;;;;;;;151.75;92.22;;;204.90;2252.80;;;;;;5039100;28;20036;-91
2022/12/04 07:14:57;;;;;;;116.68;70.38;;;204.90;2252.80;;;;;;5040048;28;20033;-92
2022/12/04 07:17:23;;;;;;;115.28;70.95;;;204.90;2252.80;;;;;;5041787;28;20044;-91
2022/12/04 07:19:49;;;;;;;120.75;75.90;;;205.00;2252.80;;;;;;5041774;28;20028;-92
2022/12/04 07:22:15;;;;;;;109.57;68.78;;;205.00;2252.80;;;;;;5041040;28;20029;-91
2022/12/04 07:24:40;;;;;;;102.47;62.28;;;205.10;2252.80;;;;;;5041559;28;20052;-89
2022/12/04 07:27:06;;;;;;;95.97;55.72;;;205.10;2252.80;;;;;;5050750;28;20024;-90
2022/12/04 07:29:32;;;;;;;80.68;46.17;;;205.10;2252.80;;;;;;5060214;28;20096;-89
2022/12/04 07:31:58;;;;;;;78.03;48.60;;;205.20;2252.80;;;;;;5059483;28;20020;-89
2022/12/04 07:34:24;;;;;;;83.88;53.53;;;205.20;2252.80;;;;;;5058904;28;20072;-87
2022/12/04 07:36:49;;;;;;;102.60;63.75;;;205.30;2252.80;;;;;;5041947;28;20013;-87
2022/12/04 07:39:15;;;;;;;72.15;47.28;;;205.30;2252.80;;;;;;5056630;28;20055;-88
2022/12/04 07:41:41;;;;;;;67.55;45.75;;;205.20;2252.80;;;;;;5058109;28;20028;-88
2022/12/04 07:44:07;;;;;;;80.28;55.97;;;205.20;2252.80;;;;;;5060756;28;20025;-90
2022/12/04 07:46:33;;;;;;;75.45;53.85;;;205.20;2252.80;;;;;;5056659;28;20415;-91
2022/12/04 07:48:59;;;;;;;83.00;53.63;;;205.30;2252.80;;;;;;5038008;28;20055;-89
2022/12/04 07:51:27;;;;;;;84.90;57.05;;;205.20;2252.80;;;;;;5037647;28;20040;-91
2022/12/04 07:53:56;;;;;;;84.90;55.50;;;205.20;2252.80;;;;;;5037402;28;20029;-92
2022/12/04 07:56:22;;;;;;;83.13;54.08;;;205.30;2252.80;;;;;;5037687;28;20037;-92
2022/12/04 07:58:48;;;;;;;71.10;48.90;;;205.30;2252.80;;;;;;5037613;28;20074;-92
2022/12/04 08:01:16;;;;;;;71.45;47.72;;;205.30;2252.80;;;;;;5037736;28;20052;-91
2022/12/04 08:03:44;;;;;;;75.13;48.20;;;205.30;2252.80;;;;;;5037828;28;20029;-93
2022/12/04 08:06:10;;;;;;;70.22;45.13;;;205.50;2252.80;;;;;;5045075;28;20472;-88
2022/12/04 08:08:37;;;;;;;43.42;30.70;;;205.50;2252.80;;;;;;5057155;28;20063;-88
2022/12/04 08:11:12;;;;;;;31.95;21.02;;;205.60;2252.80;;;;;;5057018;28;20025;-89
2022/12/04 08:13:37;;;;;;;26.55;18.73;;;205.50;2252.80;;;;;;5053525;28;20468;-89
2022/12/04 08:16:08;;;;;;;26.50;18.52;;;205.50;2252.80;;;;;;5090696;28;20075;-87
2022/12/04 08:18:35;;;;;;;28.08;18.45;;;205.50;2252.80;;;;;;5057024;28;20036;-89
2022/12/04 08:21:12;;;;;;;66.63;44.50;;;205.50;2252.80;;;;;;5057237;28;20029;-89
2022/12/04 08:23:40;;;;;;;57.03;40.28;;;205.50;2252.80;;;;;;5057998;28;20035;-91
2022/12/04 08:26:06;;;;;;;58.42;39.30;;;205.50;2252.80;;;;;;5074200;28;20059;-91
2022/12/04 08:28:33;;;;;;;51.03;35.08;;;205.50;2252.80;;;;;;5115135;28;20059;-89
2022/12/04 08:31:21;;;;;;;56.38;36.60;;;205.60;2252.80;;;;;;5062936;28;20031;-93
2022/12/04 08:33:49;;;;;;;59.15;39.85;;;205.70;2252.80;;;;;;5059416;28;20076;-90
2022/12/04 08:36:18;;;;;;;102.93;65.38;;;205.70;2252.80;;;;;;5059937;28;20044;-91
2022/12/04 08:38:44;;;;;;;93.47;59.70;;;205.70;2252.80;;;;;;5058258;28;20452;-93
2022/12/04 08:41:12;;;;;;;81.00;52.53;;;230.50;2252.80;;;;;;5057248;28;20525;-92
2022/12/04 08:43:38;;;;;;;81.00;49.47;;;230.50;2252.80;;;;;;5062181;28;20456;-93
2022/12/04 08:46:10;;;;;;;74.93;51.33;;;;;;;;;;5066729;28;20046;-94
2022/12/04 08:48:36;;;;;;;78.57;56.08;;;;;;;;;;5070018;28;20025;-92
2022/12/04 08:51:03;;;;;;;74.15;53.33;;;;;;;;;;5072135;28;20020;-92
2022/12/04 08:53:29;;;;;;;72.72;52.97;;;;;;;;;;5076464;28;20040;-93
2022/12/04 08:55:56;;;;;;;53.15;37.45;;;;;;;;;;5072981;28;20036;-92
2022/12/04 08:58:22;;;;;;;43.75;31.27;;;;;;;;;;5066668;28;20082;-92
2022/12/04 09:00:48;;;;;;;40.05;27.48;;;231.10;2252.80;;;;;;5065574;28;20060;-93
2022/12/04 09:03:16;;;;;;;55.17;38.70;;;;;;;;;;5061746;28;20035;-93
2022/12/04 09:05:44;;;;;;;60.47;42.13;;;;;;;;;;5061370;28;20017;-91
2022/12/04 09:08:10;;;;;;;57.67;38.33;;;;;;;;;;5061683;28;20028;-92
2022/12/04 09:10:37;;;;;;;61.85;39.65;;;;;;;;;;5061856;28;20035;-92
2022/12/04 09:13:04;;;;;;;79.65;52.80;;;;;;;;;;5065210;28;20020;-92
2022/12/04 09:15:30;;;;;;;64.18;41.17;;;;;;;;;;5064144;28;20039;-93
2022/12/04 09:17:56;;;;;;;62.60;42.03;;;;;;;;;;5061037;28;20434;-92
2022/12/04 09:20:22;;;;;;;62.15;41.67;;;;;;;;;;5060832;28;20600;-92
2022/12/04 09:22:48;;;;;;;74.10;49.00;;;;;;;;;;5060967;28;20448;-93
2022/12/04 09:25:14;;;;;;;55.00;40.55;;;;;;;;;;5060783;28;20384;-93
2022/12/04 09:27:40;;;;;;;48.78;36.88;;;;;;;;;;5060563;28;20025;-93
2022/12/04 09:30:10;;;;;;;48.65;36.58;;;;;;;;;;5060323;28;20020;-93
2022/12/04 09:32:36;;;;;;;44.58;34.78;;;;;;;;;;5061067;28;20021;-92
2022/12/04 09:35:02;;;;;;;45.88;33.05;;;;;;;;;;5060487;28;20080;-92
2022/12/04 09:37:28;;;;;;;44.05;30.13;;;;;;;;;;5060689;28;20059;-93
2022/12/04 09:39:55;;;;;;;44.28;31.02;;;;;;;;;;5060905;28;20024;-92
2022/12/04 09:42:40;;;;;;;42.83;31.58;;;;;;;;;;5060979;28;20028;-92
2022/12/04 09:45:20;;;;;;;28.25;21.33;;;256.70;2252.80;;;;;;5062138;28;20059;-93
2022/12/04 09:47:49;;;;;;;27.17;20.88;;;256.50;2252.80;;;;;;5060721;28;20021;-92
2022/12/04 09:50:38;;;;;;;36.75;27.42;;;256.60;2252.80;;;;;;5060120;28;20392;-93
2022/12/04 09:53:19;;;;;;;39.28;29.10;;;;;;;;;;5060032;28;20024;-92
2022/12/04 09:55:55;;;;;;;35.67;25.83;;;;;;;;;;5060083;28;20381;-92
2022/12/04 09:58:27;;;;;;;33.63;23.42;;;281.80;2278.40;;;;;;5078529;28;20396;-91
2022/12/04 10:00:54;;;;;;;31.83;24.88;;;281.70;2278.40;;;;;;5059791;28;20075;-91
2022/12/04 10:03:25;;;;;;;36.22;24.67;;;281.70;2278.40;;;;;;5059300;28;20020;-93
2022/12/04 10:06:00;;;;;;;37.35;27.17;;;281.80;2278.40;;;;;;5060115;28;20028;-93
2022/12/04 10:08:34;;;;;;;44.78;31.88;;;281.90;2278.40;;;;;;5059896;28;20020;-91
2022/12/04 10:11:26;;;;;;;44.47;31.70;;;281.90;2278.40;;;;;;5060043;28;20029;-90
2022/12/04 10:14:24;;;;;;;36.78;28.05;;;282.00;2278.40;;;;;;5059799;28;20032;-90
2022/12/04 10:17:27;;;;;;;42.05;29.25;;;282.00;2278.40;;;;;;5055135;28;20041;-91
2022/12/04 10:20:09;;;;;;;42.90;29.65;;;282.10;2278.40;;;;;;5076985;28;20017;-89
2022/12/04 10:22:59;;;;;;;29.80;22.38;;;;;;;;;;5059226;28;20039;-88
2022/12/04 10:25:25;;;;;;;30.67;22.10;;;;;;;;;;5048514;28;20049;-92
2022/12/04 10:28:13;;;;;;;53.05;37.92;;;282.50;2278.40;;;;;;5059269;28;20173;-90
2022/12/04 10:30:41;;;;;;;51.15;37.72;;;;;;;;;;5059299;28;20021;-89
2022/12/04 10:33:32;;;;;;;77.38;46.20;;;282.50;2278.40;;;;;;5059327;28;20024;-90
2022/12/04 10:35:59;;;;;;;57.28;36.53;;;282.40;2278.40;;;;;;5059457;28;20040;-87
2022/12/04 10:38:44;;;;;;;92.35;53.60;;;;;;;;;;5058587;28;20036;-88
2022/12/04 10:41:10;;;;;;;49.53;29.85;;;;;;;;;;5059197;28;20073;-91
2022/12/04 10:43:42;;;;;;;45.22;26.67;;;;;;;;;;5059216;28;20465;-90
2022/12/04 10:46:16;;;;;;;67.63;39.20;;;;;;;;;;5059918;28;20115;-90
2022/12/04 10:48:43;;;;;;;91.72;50.25;;;;;;;;;;5062184;28;20103;-90
2022/12/04 10:51:14;;;;;;;57.13;36.10;;;;;;;;;;5061822;28;20464;-91
2022/12/04 10:53:41;;;;;;;67.15;41.97;;;;;;;;;;5060673;28;20028;-91
2022/12/04 10:56:22;;;;;;;43.47;31.77;;;307.60;2304.00;;;;;;5060912;28;20082;-90
2022/12/04 10:59:14;;;;;;;51.90;34.42;;;307.40;2304.00;;;;;;5060068;28;20025;-89
2022/12/04 11:01:40;;;;;;;98.07;54.70;;;307.40;2304.00;;;;;;5055847;28;20071;-90
2022/12/04 11:04:28;;;;;;;149.40;78.85;;;307.40;2304.00;;;;;;5092241;28;20052;-89
2022/12/04 11:07:17;;;;;;;102.80;61.00;;;307.40;2304.00;;;;;;5059717;28;20435;-87
2022/12/04 11:09:52;;;;;;;64.50;39.33;;;307.50;2304.00;;;;;;5059601;28;20024;-88
2022/12/04 11:12:21;;;;;;;48.92;34.58;;;;;;;;;;5058620;28;20051;-86
2022/12/04 11:14:47;;;;;;;35.67;26.63;;;;;;;;;;5056713;28;20067;-87
2022/12/04 11:17:17;;;;;;;40.60;29.92;;;;;;;;;;5058028;28;20020;-88
2022/12/04 11:19:43;;;;;;;41.10;28.35;;;307.70;2304.00;;;;;;5058084;28;20016;-88
2022/12/04 11:22:19;;;;;;;83.10;52.78;;;307.60;2304.00;;;;;;5075620;28;20108;-88
2022/12/04 11:25:12;;;;;;;70.00;44.15;;;;;;;;;;5058049;28;20028;-90
2022/12/04 11:27:38;;;;;;;67.55;43.60;;;;;;;;;;5054145;28;20389;-88
2022/12/04 11:30:08;;;;;;;46.67;35.15;;;;;;;;;;5057969;28;20096;-88
2022/12/04 11:32:35;;;;;;;64.22;45.28;;;;;;;;;;5057839;28;20024;-88
2022/12/04 11:35:25;;;;;;;69.18;48.30;;;;;;;;;;5057167;28;20045;-87
2022/12/04 11:38:00;;;;;;;53.20;35.15;;;;;;;;;;5039568;28;20090;-86
2022/12/04 11:40:27;;;;;;;50.80;36.38;;;;;;;;;;5056975;28;20017;-85
2022/12/04 11:43:02;;;;;;;100.05;55.22;;;;;;;;;;5057453;28;20380;-87
2022/12/04 11:45:29;;;;;;;68.95;43.17;;;;;;;;;;5038996;28;20154;-87
2022/12/04 11:47:56;;;;;;;54.28;37.55;;;;;;;;;;5037367;28;20445;-88
2022/12/04 11:50:34;;;;;;;57.33;36.08;;;;;;;;;;5037037;28;20433;-87
2022/12/04 11:53:09;;;;;;;84.63;49.10;;;;;;;;;;5037299;28;20124;-89
2022/12/04 11:55:38;;;;;;;154.48;82.97;;;;;;;;;;5036954;28;20033;-86
2022/12/04 11:58:08;;;;;;;67.30;44.22;;;;;;;;;;5037283;28;20628;-91
2022/12/04 12:00:37;;;;;;;59.67;39.38;;;;;;;;;;5036939;28;20021;-89
2022/12/04 12:03:14;;;;;;;44.75;31.65;;;;;;;;;;5036817;28;20021;-89
2022/12/04 12:05:59;;;;;;;45.33;32.42;;;;;;;;;;5039924;28;20111;-86
2022/12/04 12:08:37;;;;;;;53.63;40.22;;;;;;;;;;5056929;28;20078;-87
2022/12/04 12:11:07;;;;;;;69.57;48.97;;;;;;;;;;5056422;28;20017;-85
2022/12/04 12:13:42;;;;;;;45.20;32.20;;;;;;;;;;5056612;28;20028;-87
2022/12/04 12:16:08;;;;;;;57.30;39.55;;;;;;;;;;5056338;28;20031;-83
2022/12/04 12:18:43;;;;;;;88.95;57.90;;;;;;;;;;5055804;28;20029;-86
2022/12/04 12:21:15;;;;;;;74.50;52.40;;;;;;;;;;5056053;28;20039;-84
2022/12/04 12:24:00;;;;;;;70.97;48.92;;;;;;;;;;5056932;28;20485;-84
2022/12/04 12:26:36;;;;;;;54.42;39.30;;;;;;;;;;5056572;28;20110;-87
2022/12/04 12:29:03;;;;;;;51.05;36.38;;;;;;;;;;5056906;28;20028;-86
2022/12/04 12:31:41;;;;;;;48.10;35.03;;;;;;;;;;5057439;28;20021;-87
2022/12/04 12:34:09;;;;;;;47.97;34.92;;;;;;;;;;5056675;28;20075;-85
2022/12/04 12:36:45;;;;;;;46.85;37.20;;;;;;;;;;5037037;28;20049;-87
2022/12/04 12:39:34;;;;;;;39.15;28.30;;;;;;;;;;5036682;28;20032;-88
2022/12/04 12:42:00;;;;;;;57.03;37.83;;;;;;;;;;5028833;28;20029;-86
2022/12/04 12:44:43;;;;;;;62.22;42.70;;;;;;;;;;5053151;28;20052;-86
2022/12/04 12:47:14;;;;;;;53.60;39.63;;;;;;;;;;5036257;28;20028;-86
2022/12/04 12:49:49;;;;;;;54.00;35.85;;;;;;;;;;5035640;28;20025;-87
2022/12/04 12:52:16;;;;;;;45.40;31.33;;;;;;;;;;5037170;28;20041;-88
2022/12/04 12:54:53;;;;;;;48.60;34.45;;;;;;;;;;5037131;28;20029;-87
2022/12/04 12:57:19;;;;;;;44.47;29.05;;;;;;;;;;5036816;28;20059;-87
2022/12/04 12:59:53;;;;;;;52.53;33.53;;;;;;;;;;5036407;28;20052;-86